sensor_id;sensor_type;location;lat;lon;timestamp;pressure;altitude;pressure_sealevel;temperature;humidity
36242;BME280;22283;42.748;12.732;2023-05-07T00:04:16;98162.34;;;13.89;88.05
36242;BME280;22283;42.748;12.732;2023-05-07T00:09:16;98146.34;;;13.80;89.50
36242;BME280;22283;42.748;12.732;2023-05-07T00:14:17;98142.97;;;13.77;88.79
36242;BME280;22283;42.748;12.732;2023-05-07T00:19:18;98139.44;;;13.67;89.08
36242;BME280;22283;42.748;12.732;2023-05-07T00:24:18;98135.34;;;13.63;89.44
36242;BME280;22283;42.748;12.732;2023-05-07T00:29:20;98141.38;;;13.65;89.00
36242;BME280;22283;42.748;12.732;2023-05-07T00:34:21;98149.34;;;13.65;89.33
36242;BME280;22283;42.748;12.732;2023-05-07T00:39:22;98151.31;;;13.42;90.00
36242;BME280;22283;42.748;12.732;2023-05-07T00:44:23;98155.84;;;13.31;91.31
36242;BME280;22283;42.748;12.732;2023-05-07T00:49:39;98155.97;;;13.18;92.47
36242;BME280;22283;42.748;12.732;2023-05-07T00:54:42;98161.38;;;13.07;94.10
36242;BME280;22283;42.748;12.732;2023-05-07T00:59:42;98152.03;;;13.12;93.59
36242;BME280;22283;42.748;12.732;2023-05-07T01:04:43;98139.91;;;13.31;91.69
36242;BME280;22283;42.748;12.732;2023-05-07T01:09:44;98134.03;;;13.16;92.56
36242;BME280;22283;42.748;12.732;2023-05-07T01:14:45;98146.75;;;13.01;94.30
36242;BME280;22283;42.748;12.732;2023-05-07T01:19:46;98149.97;;;12.84;95.12
36242;BME280;22283;42.748;12.732;2023-05-07T01:24:48;98145.28;;;13.08;93.35
36242;BME280;22283;42.748;12.732;2023-05-07T01:29:50;98152.47;;;13.17;92.27
36242;BME280;22283;42.748;12.732;2023-05-07T01:34:52;98155.94;;;12.97;94.06
36242;BME280;22283;42.748;12.732;2023-05-07T01:39:53;98159.03;;;12.81;95.40
36242;BME280;22283;42.748;12.732;2023-05-07T01:44:54;98165.38;;;12.90;94.29
36242;BME280;22283;42.748;12.732;2023-05-07T01:49:55;98157.66;;;12.87;94.22
36242;BME280;22283;42.748;12.732;2023-05-07T01:54:55;98164.34;;;12.70;95.57
36242;BME280;22283;42.748;12.732;2023-05-07T01:59:56;98166.72;;;12.52;97.02
36242;BME280;22283;42.748;12.732;2023-05-07T02:04:57;98162.84;;;12.34;98.03
36242;BME280;22283;42.748;12.732;2023-05-07T02:09:58;98181.94;;;12.16;99.82
36242;BME280;22283;42.748;12.732;2023-05-07T02:14:59;98181.09;;;12.04;100.00
36242;BME280;22283;42.748;12.732;2023-05-07T02:20:00;98184.81;;;11.91;100.00
36242;BME280;22283;42.748;12.732;2023-05-07T02:25:01;98185.25;;;11.73;100.00
36242;BME280;22283;42.748;12.732;2023-05-07T02:30:01;98180.53;;;11.66;100.00
36242;BME280;22283;42.748;12.732;2023-05-07T02:35:02;98168.84;;;11.57;100.00
36242;BME280;22283;42.748;12.732;2023-05-07T02:40:03;98170.50;;;11.58;100.00
36242;BME280;22283;42.748;12.732;2023-05-07T02:45:05;98171.25;;;11.60;100.00
36242;BME280;22283;42.748;12.732;2023-05-07T02:50:06;98176.66;;;11.58;100.00
36242;BME280;22283;42.748;12.732;2023-05-07T02:55:08;98171.22;;;11.49;100.00
36242;BME280;22283;42.748;12.732;2023-05-07T03:00:17;98178.44;;;11.47;100.00
36242;BME280;22283;42.748;12.732;2023-05-07T03:05:26;98177.91;;;11.30;100.00
36242;BME280;22283;42.748;12.732;2023-05-07T03:10:26;98173.53;;;11.18;100.00
36242;BME280;22283;42.748;12.732;2023-05-07T03:15:27;98175.06;;;11.10;100.00
36242;BME280;22283;42.748;12.732;2023-05-07T03:20:28;98167.56;;;11.03;100.00
36242;BME280;22283;42.748;12.732;2023-05-07T03:25:29;98179.34;;;10.99;100.00
36242;BME280;22283;42.748;12.732;2023-05-07T03:30:32;98179.47;;;10.98;100.00
36242;BME280;22283;42.748;12.732;2023-05-07T03:35:33;98178.72;;;10.96;100.00
36242;BME280;22283;42.748;12.732;2023-05-07T03:40:34;98186.66;;;10.96;100.00
36242;BME280;22283;42.748;12.732;2023-05-07T03:45:36;98185.41;;;10.89;100.00
36242;BME280;22283;42.748;12.732;2023-05-07T03:50:56;98175.56;;;10.91;100.00
36242;BME280;22283;42.748;12.732;2023-05-07T03:55:58;98185.19;;;10.68;100.00
36242;BME280;22283;42.748;12.732;2023-05-07T04:00:59;98187.38;;;10.50;100.00
36242;BME280;22283;42.748;12.732;2023-05-07T04:06:02;98184.19;;;10.45;100.00
36242;BME280;22283;42.748;12.732;2023-05-07T04:11:05;98177.03;;;10.47;100.00
36242;BME280;22283;42.748;12.732;2023-05-07T04:16:07;98178.03;;;10.57;100.00
36242;BME280;22283;42.748;12.732;2023-05-07T04:21:20;98168.34;;;10.69;100.00
36242;BME280;22283;42.748;12.732;2023-05-07T04:26:22;98167.63;;;10.91;100.00
36242;BME280;22283;42.748;12.732;2023-05-07T04:31:23;98162.84;;;11.31;100.00
36242;BME280;22283;42.748;12.732;2023-05-07T04:36:27;98156.72;;;12.88;99.67
36242;BME280;22283;42.748;12.732;2023-05-07T04:41:36;98166.84;;;14.60;85.65
36242;BME280;22283;42.748;12.732;2023-05-07T04:46:38;98176.88;;;15.55;76.13
36242;BME280;22283;42.748;12.732;2023-05-07T04:51:39;98186.38;;;15.96;73.44
36242;BME280;22283;42.748;12.732;2023-05-07T04:56:43;98200.56;;;16.34;70.23
36242;BME280;22283;42.748;12.732;2023-05-07T05:01:44;98192.78;;;17.23;65.88
36242;BME280;22283;42.748;12.732;2023-05-07T05:06:45;98183.03;;;18.28;59.69
36242;BME280;22283;42.748;12.732;2023-05-07T05:11:47;98184.53;;;18.64;57.57
36242;BME280;22283;42.748;12.732;2023-05-07T05:16:48;98187.09;;;19.25;55.55
36242;BME280;22283;42.748;12.732;2023-05-07T05:21:49;98180.53;;;20.09;53.62
36242;BME280;22283;42.748;12.732;2023-05-07T05:26:50;98180.19;;;20.68;51.35
36242;BME280;22283;42.748;12.732;2023-05-07T05:31:53;98194.22;;;20.86;53.15
36242;BME280;22283;42.748;12.732;2023-05-07T05:36:53;98178.59;;;21.12;50.34
36242;BME280;22283;42.748;12.732;2023-05-07T05:41:54;98171.34;;;21.44;49.34
36242;BME280;22283;42.748;12.732;2023-05-07T05:46:55;98175.13;;;21.73;48.58
36242;BME280;22283;42.748;12.732;2023-05-07T05:51:58;98180.00;;;21.92;49.70
36242;BME280;22283;42.748;12.732;2023-05-07T05:57:00;98179.72;;;21.49;52.23
36242;BME280;22283;42.748;12.732;2023-05-07T06:02:05;98179.47;;;21.82;50.71
36242;BME280;22283;42.748;12.732;2023-05-07T06:07:06;98174.44;;;21.79;50.80
36242;BME280;22283;42.748;12.732;2023-05-07T06:12:07;98181.28;;;21.12;52.72
36242;BME280;22283;42.748;12.732;2023-05-07T06:17:08;98178.66;;;21.35;52.78
36242;BME280;22283;42.748;12.732;2023-05-07T06:22:08;98168.47;;;21.46;51.32
36242;BME280;22283;42.748;12.732;2023-05-07T06:27:10;98168.66;;;21.44;50.33
36242;BME280;22283;42.748;12.732;2023-05-07T06:32:13;98170.19;;;21.61;50.35
36242;BME280;22283;42.748;12.732;2023-05-07T06:37:16;98179.97;;;21.40;51.33
36242;BME280;22283;42.748;12.732;2023-05-07T06:42:27;98174.56;;;21.63;51.45
36242;BME280;22283;42.748;12.732;2023-05-07T06:47:33;98171.47;;;21.51;51.67
36242;BME280;22283;42.748;12.732;2023-05-07T06:52:33;98183.19;;;21.35;51.88
36242;BME280;22283;42.748;12.732;2023-05-07T06:57:35;98185.03;;;21.57;50.99
36242;BME280;22283;42.748;12.732;2023-05-07T07:02:36;98175.22;;;21.19;50.96
36242;BME280;22283;42.748;12.732;2023-05-07T07:07:37;98177.75;;;21.81;50.02
36242;BME280;22283;42.748;12.732;2023-05-07T07:12:38;98158.63;;;21.76;48.94
36242;BME280;22283;42.748;12.732;2023-05-07T07:17:38;98165.88;;;22.28;48.09
36242;BME280;22283;42.748;12.732;2023-05-07T07:22:40;98163.19;;;22.57;48.37
36242;BME280;22283;42.748;12.732;2023-05-07T07:27:41;98164.38;;;22.55;48.85
36242;BME280;22283;42.748;12.732;2023-05-07T07:32:42;98169.75;;;22.70;48.29
36242;BME280;22283;42.748;12.732;2023-05-07T07:37:43;98175.69;;;22.80;48.88
36242;BME280;22283;42.748;12.732;2023-05-07T07:42:44;98187.28;;;22.80;50.35
36242;BME280;22283;42.748;12.732;2023-05-07T07:47:46;98179.06;;;22.52;49.91
36242;BME280;22283;42.748;12.732;2023-05-07T07:52:47;98183.97;;;22.64;50.01
36242;BME280;22283;42.748;12.732;2023-05-07T07:57:50;98183.59;;;22.81;49.64
36242;BME280;22283;42.748;12.732;2023-05-07T08:02:51;98177.47;;;22.73;50.06
36242;BME280;22283;42.748;12.732;2023-05-07T08:07:58;98179.25;;;22.51;49.40
36242;BME280;22283;42.748;12.732;2023-05-07T08:13:03;98180.56;;;22.25;50.44
36242;BME280;22283;42.748;12.732;2023-05-07T08:18:05;98182.88;;;22.14;50.17
36242;BME280;22283;42.748;12.732;2023-05-07T08:23:07;98192.78;;;22.13;50.18
36242;BME280;22283;42.748;12.732;2023-05-07T08:28:08;98181.75;;;22.23;48.85
36242;BME280;22283;42.748;12.732;2023-05-07T08:33:09;98186.59;;;22.42;48.86
36242;BME280;22283;42.748;12.732;2023-05-07T08:38:10;98186.13;;;22.53;48.09
36242;BME280;22283;42.748;12.732;2023-05-07T08:43:13;98178.38;;;22.80;47.79
36242;BME280;22283;42.748;12.732;2023-05-07T08:48:17;98179.09;;;23.03;47.94
36242;BME280;22283;42.748;12.732;2023-05-07T08:53:24;98169.47;;;23.16;45.67
36242;BME280;22283;42.748;12.732;2023-05-07T08:58:26;98164.03;;;23.09;45.82
36242;BME280;22283;42.748;12.732;2023-05-07T09:03:27;98177.44;;;23.02;46.34
36242;BME280;22283;42.748;12.732;2023-05-07T09:08:30;98159.97;;;23.20;45.20
36242;BME280;22283;42.748;12.732;2023-05-07T09:13:34;98165.19;;;23.21;46.51
36242;BME280;22283;42.748;12.732;2023-05-07T09:18:41;98168.59;;;23.51;45.59
36242;BME280;22283;42.748;12.732;2023-05-07T09:23:42;98170.34;;;23.38;45.07
36242;BME280;22283;42.748;12.732;2023-05-07T09:28:44;98174.44;;;23.34;44.82
36242;BME280;22283;42.748;12.732;2023-05-07T09:33:47;98173.91;;;23.23;44.07
36242;BME280;22283;42.748;12.732;2023-05-07T09:38:48;98179.81;;;23.70;44.83
36242;BME280;22283;42.748;12.732;2023-05-07T09:43:54;98168.22;;;23.76;44.59
36242;BME280;22283;42.748;12.732;2023-05-07T09:48:58;98160.00;;;24.19;43.94
36242;BME280;22283;42.748;12.732;2023-05-07T09:54:02;98158.31;;;24.39;43.33
36242;BME280;22283;42.748;12.732;2023-05-07T09:59:06;98148.38;;;24.53;43.30
36242;BME280;22283;42.748;12.732;2023-05-07T10:04:09;98149.69;;;24.64;42.55
36242;BME280;22283;42.748;12.732;2023-05-07T10:09:11;98148.50;;;24.86;42.36
36242;BME280;22283;42.748;12.732;2023-05-07T10:14:14;98138.88;;;24.64;42.90
36242;BME280;22283;42.748;12.732;2023-05-07T10:19:17;98136.53;;;24.26;43.43
36242;BME280;22283;42.748;12.732;2023-05-07T10:24:26;98135.22;;;24.09;44.96
36242;BME280;22283;42.748;12.732;2023-05-07T10:34:42;98128.56;;;25.00;43.67
36242;BME280;22283;42.748;12.732;2023-05-07T10:39:44;98127.31;;;24.96;44.17
36242;BME280;22283;42.748;12.732;2023-05-07T10:44:45;98121.59;;;25.39;43.01
36242;BME280;22283;42.748;12.732;2023-05-07T11:05:30;98106.78;;;25.62;42.35
36242;BME280;22283;42.748;12.732;2023-05-07T11:10:52;98100.78;;;25.66;42.16
36242;BME280;22283;42.748;12.732;2023-05-07T11:16:23;98104.50;;;25.39;42.64
36242;BME280;22283;42.748;12.732;2023-05-07T11:21:40;98094.91;;;25.49;42.22
36242;BME280;22283;42.748;12.732;2023-05-07T11:27:13;98084.72;;;25.51;41.88
36242;BME280;22283;42.748;12.732;2023-05-07T11:32:14;98084.94;;;25.43;41.96
36242;BME280;22283;42.748;12.732;2023-05-07T11:37:23;98084.94;;;25.63;41.99
36242;BME280;22283;42.748;12.732;2023-05-07T11:42:38;98079.06;;;25.33;42.15
36242;BME280;22283;42.748;12.732;2023-05-07T11:47:41;98080.97;;;25.33;43.98
36242;BME280;22283;42.748;12.732;2023-05-07T11:52:50;98079.50;;;25.37;43.11
36242;BME280;22283;42.748;12.732;2023-05-07T11:57:52;98074.47;;;25.93;41.37
36242;BME280;22283;42.748;12.732;2023-05-07T12:02:53;98077.78;;;26.09;40.14
36242;BME280;22283;42.748;12.732;2023-05-07T12:07:56;98074.88;;;26.04;40.48
36242;BME280;22283;42.748;12.732;2023-05-07T12:12:57;98081.16;;;25.97;40.63
36242;BME280;22283;42.748;12.732;2023-05-07T12:17:58;98070.69;;;26.08;39.21
36242;BME280;22283;42.748;12.732;2023-05-07T12:22:58;98070.69;;;26.14;39.34
36242;BME280;22283;42.748;12.732;2023-05-07T12:28:00;98071.47;;;26.28;38.54
36242;BME280;22283;42.748;12.732;2023-05-07T12:33:01;98069.91;;;26.59;39.22
36242;BME280;22283;42.748;12.732;2023-05-07T12:38:02;98070.97;;;26.58;37.54
36242;BME280;22283;42.748;12.732;2023-05-07T12:43:04;98062.78;;;26.64;37.37
36242;BME280;22283;42.748;12.732;2023-05-07T12:48:05;98061.59;;;26.40;37.09
36242;BME280;22283;42.748;12.732;2023-05-07T12:53:07;98060.78;;;26.40;38.04
36242;BME280;22283;42.748;12.732;2023-05-07T12:58:28;98056.84;;;26.36;37.93
36242;BME280;22283;42.748;12.732;2023-05-07T13:03:31;98055.94;;;26.55;37.29
36242;BME280;22283;42.748;12.732;2023-05-07T13:08:36;98050.34;;;26.43;36.53
36242;BME280;22283;42.748;12.732;2023-05-07T13:13:41;98041.81;;;26.46;36.20
36242;BME280;22283;42.748;12.732;2023-05-07T13:18:42;98027.88;;;26.30;36.34
36242;BME280;22283;42.748;12.732;2023-05-07T13:23:43;98026.47;;;26.14;36.41
36242;BME280;22283;42.748;12.732;2023-05-07T13:28:44;98019.13;;;26.21;36.38
36242;BME280;22283;42.748;12.732;2023-05-07T13:33:45;98007.28;;;26.09;36.85
36242;BME280;22283;42.748;12.732;2023-05-07T13:38:45;98003.91;;;26.20;38.26
36242;BME280;22283;42.748;12.732;2023-05-07T13:43:46;98002.31;;;26.06;36.73
36242;BME280;22283;42.748;12.732;2023-05-07T13:48:47;98004.63;;;25.95;37.58
36242;BME280;22283;42.748;12.732;2023-05-07T13:53:48;97999.16;;;26.09;37.06
36242;BME280;22283;42.748;12.732;2023-05-07T13:58:48;98003.16;;;25.99;36.88
36242;BME280;22283;42.748;12.732;2023-05-07T14:03:49;98007.94;;;26.04;37.85
36242;BME280;22283;42.748;12.732;2023-05-07T14:08:50;98006.16;;;25.78;39.07
36242;BME280;22283;42.748;12.732;2023-05-07T14:13:50;98001.94;;;25.75;39.92
36242;BME280;22283;42.748;12.732;2023-05-07T14:18:51;98002.41;;;25.79;39.28
36242;BME280;22283;42.748;12.732;2023-05-07T14:23:52;98011.34;;;25.86;39.31
36242;BME280;22283;42.748;12.732;2023-05-07T14:28:53;97999.44;;;25.87;38.06
36242;BME280;22283;42.748;12.732;2023-05-07T14:33:55;98004.22;;;25.85;39.53
36242;BME280;22283;42.748;12.732;2023-05-07T14:38:58;98004.06;;;25.80;38.96
36242;BME280;22283;42.748;12.732;2023-05-07T14:43:59;98012.75;;;25.95;39.45
36242;BME280;22283;42.748;12.732;2023-05-07T14:49:02;98011.47;;;26.05;39.37
36242;BME280;22283;42.748;12.732;2023-05-07T14:54:02;98011.94;;;25.88;40.64
36242;BME280;22283;42.748;12.732;2023-05-07T14:59:03;98005.72;;;25.68;40.63
36242;BME280;22283;42.748;12.732;2023-05-07T15:04:04;98014.91;;;25.67;41.28
36242;BME280;22283;42.748;12.732;2023-05-07T15:09:05;97999.47;;;25.67;40.75
36242;BME280;22283;42.748;12.732;2023-05-07T15:14:05;98011.97;;;25.75;41.68
36242;BME280;22283;42.748;12.732;2023-05-07T15:19:06;98011.97;;;25.68;42.28
36242;BME280;22283;42.748;12.732;2023-05-07T15:24:07;98011.13;;;25.74;41.21
36242;BME280;22283;42.748;12.732;2023-05-07T15:29:08;98005.75;;;25.55;40.32
36242;BME280;22283;42.748;12.732;2023-05-07T15:34:10;98007.38;;;25.69;41.39
36242;BME280;22283;42.748;12.732;2023-05-07T15:39:10;98003.66;;;25.57;41.71
36242;BME280;22283;42.748;12.732;2023-05-07T15:44:11;98012.22;;;25.40;42.79
36242;BME280;22283;42.748;12.732;2023-05-07T15:49:11;98014.13;;;25.26;43.27
36242;BME280;22283;42.748;12.732;2023-05-07T15:54:12;98004.94;;;25.34;44.26
36242;BME280;22283;42.748;12.732;2023-05-07T15:59:13;98009.91;;;25.37;44.20
36242;BME280;22283;42.748;12.732;2023-05-07T16:04:15;98023.84;;;25.08;45.37
36242;BME280;22283;42.748;12.732;2023-05-07T16:09:16;98010.28;;;24.81;45.66
36242;BME280;22283;42.748;12.732;2023-05-07T16:14:16;98012.31;;;24.52;46.56
36242;BME280;22283;42.748;12.732;2023-05-07T16:19:17;98018.84;;;24.30;47.70
36242;BME280;22283;42.748;12.732;2023-05-07T16:24:18;98010.50;;;24.12;48.16
36242;BME280;22283;42.748;12.732;2023-05-07T16:29:18;98017.03;;;23.89;48.83
36242;BME280;22283;42.748;12.732;2023-05-07T16:34:20;98021.16;;;23.85;49.58
36242;BME280;22283;42.748;12.732;2023-05-07T16:39:22;98020.34;;;23.91;48.96
36242;BME280;22283;42.748;12.732;2023-05-07T16:44:23;98030.75;;;23.88;48.67
36242;BME280;22283;42.748;12.732;2023-05-07T16:49:26;98024.47;;;23.80;49.87
36242;BME280;22283;42.748;12.732;2023-05-07T16:54:27;98024.91;;;23.84;50.71
36242;BME280;22283;42.748;12.732;2023-05-07T16:59:28;98024.75;;;23.64;51.23
36242;BME280;22283;42.748;12.732;2023-05-07T17:04:31;98025.28;;;23.25;51.82
36242;BME280;22283;42.748;12.732;2023-05-07T17:09:32;98044.19;;;23.03;52.14
36242;BME280;22283;42.748;12.732;2023-05-07T17:14:32;98041.59;;;22.74;53.31
36242;BME280;22283;42.748;12.732;2023-05-07T17:19:36;98050.56;;;22.59;54.65
36242;BME280;22283;42.748;12.732;2023-05-07T17:24:37;98056.56;;;22.40;54.89
36242;BME280;22283;42.748;12.732;2023-05-07T17:29:38;98064.31;;;22.14;55.89
36242;BME280;22283;42.748;12.732;2023-05-07T17:34:39;98056.88;;;21.86;56.96
36242;BME280;22283;42.748;12.732;2023-05-07T17:39:40;98054.41;;;21.61;58.49
36242;BME280;22283;42.748;12.732;2023-05-07T17:44:40;98048.25;;;21.38;59.53
36242;BME280;22283;42.748;12.732;2023-05-07T17:49:41;98056.53;;;21.13;61.33
36242;BME280;22283;42.748;12.732;2023-05-07T17:54:49;98053.69;;;20.92;62.54
36242;BME280;22283;42.748;12.732;2023-05-07T17:59:50;98036.69;;;20.69;64.05
36242;BME280;22283;42.748;12.732;2023-05-07T18:04:50;98046.84;;;20.58;64.82
36242;BME280;22283;42.748;12.732;2023-05-07T18:09:51;98044.22;;;20.42;66.42
36242;BME280;22283;42.748;12.732;2023-05-07T18:14:51;98056.06;;;20.25;68.20
36242;BME280;22283;42.748;12.732;2023-05-07T18:19:52;98068.91;;;20.06;69.80
36242;BME280;22283;42.748;12.732;2023-05-07T18:24:53;98070.84;;;19.81;71.77
36242;BME280;22283;42.748;12.732;2023-05-07T18:29:55;98079.56;;;19.59;72.88
36242;BME280;22283;42.748;12.732;2023-05-07T18:34:56;98091.50;;;19.40;73.96
36242;BME280;22283;42.748;12.732;2023-05-07T18:39:56;98101.25;;;19.25;74.13
36242;BME280;22283;42.748;12.732;2023-05-07T18:44:57;98106.94;;;19.22;74.97
36242;BME280;22283;42.748;12.732;2023-05-07T18:49:58;98130.75;;;19.25;75.47
36242;BME280;22283;42.748;12.732;2023-05-07T18:55:00;98121.84;;;19.08;77.01
36242;BME280;22283;42.748;12.732;2023-05-07T19:00:00;98133.06;;;18.95;77.56
36242;BME280;22283;42.748;12.732;2023-05-07T19:05:01;98148.47;;;18.85;78.56
36242;BME280;22283;42.748;12.732;2023-05-07T19:10:02;98144.75;;;18.78;79.43
36242;BME280;22283;42.748;12.732;2023-05-07T19:15:03;98146.41;;;18.71;79.46
36242;BME280;22283;42.748;12.732;2023-05-07T19:20:04;98151.72;;;18.62;80.03
36242;BME280;22283;42.748;12.732;2023-05-07T19:25:05;98156.72;;;18.57;81.20
36242;BME280;22283;42.748;12.732;2023-05-07T19:30:07;98164.25;;;18.54;81.78
36242;BME280;22283;42.748;12.732;2023-05-07T19:35:08;98169.13;;;18.58;83.13
36242;BME280;22283;42.748;12.732;2023-05-07T19:40:09;98158.88;;;18.54;83.68
36242;BME280;22283;42.748;12.732;2023-05-07T19:45:09;98161.72;;;18.60;83.98
36242;BME280;22283;42.748;12.732;2023-05-07T19:50:10;98168.44;;;18.64;83.37
36242;BME280;22283;42.748;12.732;2023-05-07T19:55:11;98173.28;;;18.61;83.89
36242;BME280;22283;42.748;12.732;2023-05-07T20:00:12;98174.28;;;18.60;83.96
36242;BME280;22283;42.748;12.732;2023-05-07T20:05:15;98181.28;;;18.53;84.25
36242;BME280;22283;42.748;12.732;2023-05-07T20:10:16;98180.75;;;18.41;84.55
36242;BME280;22283;42.748;12.732;2023-05-07T20:15:16;98184.06;;;18.35;85.67
36242;BME280;22283;42.748;12.732;2023-05-07T20:20:19;98194.06;;;18.25;85.75
36242;BME280;22283;42.748;12.732;2023-05-07T20:25:19;98191.72;;;18.22;85.41
36242;BME280;22283;42.748;12.732;2023-05-07T20:30:20;98188.31;;;18.11;85.99
36242;BME280;22283;42.748;12.732;2023-05-07T20:35:23;98190.94;;;18.03;86.48
36242;BME280;22283;42.748;12.732;2023-05-07T20:40:24;98183.16;;;17.92;86.95
36242;BME280;22283;42.748;12.732;2023-05-07T20:45:26;98188.94;;;17.79;88.11
36242;BME280;22283;42.748;12.732;2023-05-07T20:50:27;98182.44;;;17.64;89.16
36242;BME280;22283;42.748;12.732;2023-05-07T20:55:27;98177.63;;;17.50;90.46
36242;BME280;22283;42.748;12.732;2023-05-07T21:00:28;98180.22;;;17.41;91.95
36242;BME280;22283;42.748;12.732;2023-05-07T21:05:29;98187.09;;;17.44;91.90
36242;BME280;22283;42.748;12.732;2023-05-07T21:10:31;98180.56;;;17.38;92.19
36242;BME280;22283;42.748;12.732;2023-05-07T21:15:32;98179.19;;;17.34;92.67
36242;BME280;22283;42.748;12.732;2023-05-07T21:20:33;98189.00;;;17.34;92.37
36242;BME280;22283;42.748;12.732;2023-05-07T21:25:36;98192.47;;;17.44;91.76
36242;BME280;22283;42.748;12.732;2023-05-07T21:30:37;98195.66;;;17.48;90.49
36242;BME280;22283;42.748;12.732;2023-05-07T21:35:38;98189.78;;;17.44;90.80
36242;BME280;22283;42.748;12.732;2023-05-07T21:40:39;98199.50;;;17.27;91.90
36242;BME280;22283;42.748;12.732;2023-05-07T21:45:40;98205.16;;;17.24;92.60
36242;BME280;22283;42.748;12.732;2023-05-07T21:50:40;98201.41;;;17.17;93.00
36242;BME280;22283;42.748;12.732;2023-05-07T21:55:41;98196.22;;;17.15;93.38
36242;BME280;22283;42.748;12.732;2023-05-07T22:00:41;98203.06;;;17.18;93.34
36242;BME280;22283;42.748;12.732;2023-05-07T22:05:42;98198.34;;;17.30;93.12
36242;BME280;22283;42.748;12.732;2023-05-07T22:10:43;98204.31;;;17.24;94.21
36242;BME280;22283;42.748;12.732;2023-05-07T22:15:43;98211.09;;;17.18;94.94
36242;BME280;22283;42.748;12.732;2023-05-07T22:20:45;98202.94;;;17.19;94.25
36242;BME280;22283;42.748;12.732;2023-05-07T22:25:45;98207.13;;;17.22;93.32
36242;BME280;22283;42.748;12.732;2023-05-07T22:30:46;98203.69;;;17.12;93.62
36242;BME280;22283;42.748;12.732;2023-05-07T22:35:46;98198.72;;;17.17;92.57
36242;BME280;22283;42.748;12.732;2023-05-07T22:47:29;98196.63;;;16.93;95.08
36242;BME280;22283;42.748;12.732;2023-05-07T22:52:33;98208.81;;;16.78;96.82
36242;BME280;22283;42.748;12.732;2023-05-07T22:57:33;98211.00;;;16.55;99.33
36242;BME280;22283;42.748;12.732;2023-05-07T23:02:34;98208.69;;;16.42;100.00
36242;BME280;22283;42.748;12.732;2023-05-07T23:07:35;98206.75;;;16.34;100.00
36242;BME280;22283;42.748;12.732;2023-05-07T23:12:35;98212.34;;;16.41;100.00
36242;BME280;22283;42.748;12.732;2023-05-07T23:17:36;98208.75;;;16.32;100.00
36242;BME280;22283;42.748;12.732;2023-05-07T23:22:37;98210.16;;;16.27;100.00
36242;BME280;22283;42.748;12.732;2023-05-07T23:27:37;98219.75;;;16.19;100.00
36242;BME280;22283;42.748;12.732;2023-05-07T23:32:38;98218.47;;;16.23;100.00
36242;BME280;22283;42.748;12.732;2023-05-07T23:37:39;98215.09;;;16.21;100.00
36242;BME280;22283;42.748;12.732;2023-05-07T23:42:39;98214.25;;;16.11;100.00
36242;BME280;22283;42.748;12.732;2023-05-07T23:47:40;98215.53;;;16.07;100.00
36242;BME280;22283;42.748;12.732;2023-05-07T23:52:41;98212.75;;;16.09;100.00
36242;BME280;22283;42.748;12.732;2023-05-07T23:57:41;98208.97;;;16.02;100.00
